sensor_id;sensor_type;location;lat;lon;timestamp;temperature;humidity
28484;DHT22;15704;48.834;8.736;2023-06-14T00:00:45;15.50;80.10
28484;DHT22;15704;48.834;8.736;2023-06-14T00:03:12;15.50;79.90
28484;DHT22;15704;48.834;8.736;2023-06-14T00:05:44;15.50;79.40
28484;DHT22;15704;48.834;8.736;2023-06-14T00:08:13;15.50;79.90
28484;DHT22;15704;48.834;8.736;2023-06-14T00:10:40;15.40;80.90
28484;DHT22;15704;48.834;8.736;2023-06-14T00:13:10;15.40;80.90
28484;DHT22;15704;48.834;8.736;2023-06-14T00:15:37;15.40;80.10
28484;DHT22;15704;48.834;8.736;2023-06-14T00:18:04;15.40;80.30
28484;DHT22;15704;48.834;8.736;2023-06-14T00:20:32;15.40;80.90
28484;DHT22;15704;48.834;8.736;2023-06-14T00:23:00;15.40;81.50
28484;DHT22;15704;48.834;8.736;2023-06-14T00:25:27;15.30;81.70
28484;DHT22;15704;48.834;8.736;2023-06-14T00:27:57;15.20;82.30
28484;DHT22;15704;48.834;8.736;2023-06-14T00:30:24;15.20;82.10
28484;DHT22;15704;48.834;8.736;2023-06-14T00:32:51;15.20;82.80
28484;DHT22;15704;48.834;8.736;2023-06-14T00:35:18;15.20;83.00
28484;DHT22;15704;48.834;8.736;2023-06-14T00:37:45;15.10;82.60
28484;DHT22;15704;48.834;8.736;2023-06-14T00:40:12;15.10;83.40
28484;DHT22;15704;48.834;8.736;2023-06-14T00:42:39;15.00;84.00
28484;DHT22;15704;48.834;8.736;2023-06-14T00:45:06;15.00;84.30
28484;DHT22;15704;48.834;8.736;2023-06-14T00:47:35;15.00;84.30
28484;DHT22;15704;48.834;8.736;2023-06-14T00:50:02;14.80;84.90
28484;DHT22;15704;48.834;8.736;2023-06-14T00:52:29;14.80;85.30
28484;DHT22;15704;48.834;8.736;2023-06-14T00:54:58;14.80;85.40
28484;DHT22;15704;48.834;8.736;2023-06-14T00:57:26;14.80;85.60
28484;DHT22;15704;48.834;8.736;2023-06-14T00:59:53;14.80;85.40
28484;DHT22;15704;48.834;8.736;2023-06-14T01:02:21;14.80;86.50
28484;DHT22;15704;48.834;8.736;2023-06-14T01:04:49;14.70;85.90
28484;DHT22;15704;48.834;8.736;2023-06-14T01:10:41;14.60;87.30
28484;DHT22;15704;48.834;8.736;2023-06-14T01:13:38;14.50;87.90
28484;DHT22;15704;48.834;8.736;2023-06-14T01:16:06;14.50;88.30
28484;DHT22;15704;48.834;8.736;2023-06-14T01:18:34;14.50;88.30
28484;DHT22;15704;48.834;8.736;2023-06-14T01:21:01;14.50;89.10
28484;DHT22;15704;48.834;8.736;2023-06-14T01:23:32;14.30;89.90
28484;DHT22;15704;48.834;8.736;2023-06-14T01:26:01;14.30;90.20
28484;DHT22;15704;48.834;8.736;2023-06-14T01:28:31;14.20;90.20
28484;DHT22;15704;48.834;8.736;2023-06-14T01:31:02;14.20;90.20
28484;DHT22;15704;48.834;8.736;2023-06-14T01:33:32;14.20;90.40
28484;DHT22;15704;48.834;8.736;2023-06-14T01:36:01;14.20;90.70
28484;DHT22;15704;48.834;8.736;2023-06-14T01:38:30;14.10;90.60
28484;DHT22;15704;48.834;8.736;2023-06-14T01:40:58;14.10;90.50
28484;DHT22;15704;48.834;8.736;2023-06-14T01:43:26;14.10;90.70
28484;DHT22;15704;48.834;8.736;2023-06-14T01:45:55;14.10;91.30
28484;DHT22;15704;48.834;8.736;2023-06-14T01:48:23;14.00;91.10
28484;DHT22;15704;48.834;8.736;2023-06-14T01:50:50;14.00;91.00
28484;DHT22;15704;48.834;8.736;2023-06-14T01:53:17;13.90;91.00
28484;DHT22;15704;48.834;8.736;2023-06-14T01:55:43;14.00;91.00
28484;DHT22;15704;48.834;8.736;2023-06-14T01:58:11;13.90;90.90
28484;DHT22;15704;48.834;8.736;2023-06-14T02:00:37;13.90;90.90
28484;DHT22;15704;48.834;8.736;2023-06-14T02:03:04;13.90;90.80
28484;DHT22;15704;48.834;8.736;2023-06-14T02:05:31;13.90;90.90
28484;DHT22;15704;48.834;8.736;2023-06-14T02:07:58;14.00;90.80
28484;DHT22;15704;48.834;8.736;2023-06-14T02:10:25;14.00;90.70
28484;DHT22;15704;48.834;8.736;2023-06-14T02:12:52;14.00;90.70
28484;DHT22;15704;48.834;8.736;2023-06-14T02:15:18;14.00;90.60
28484;DHT22;15704;48.834;8.736;2023-06-14T02:17:46;13.90;90.80
28484;DHT22;15704;48.834;8.736;2023-06-14T02:20:13;13.90;91.00
28484;DHT22;15704;48.834;8.736;2023-06-14T02:22:41;13.90;91.10
28484;DHT22;15704;48.834;8.736;2023-06-14T02:25:08;13.80;91.20
28484;DHT22;15704;48.834;8.736;2023-06-14T02:27:35;13.80;91.20
28484;DHT22;15704;48.834;8.736;2023-06-14T02:30:02;13.70;91.20
28484;DHT22;15704;48.834;8.736;2023-06-14T02:32:29;13.70;91.40
28484;DHT22;15704;48.834;8.736;2023-06-14T02:34:56;13.70;91.60
28484;DHT22;15704;48.834;8.736;2023-06-14T02:37:23;13.60;91.50
28484;DHT22;15704;48.834;8.736;2023-06-14T02:39:50;13.50;91.50
28484;DHT22;15704;48.834;8.736;2023-06-14T02:42:17;13.50;91.60
28484;DHT22;15704;48.834;8.736;2023-06-14T02:44:44;13.50;91.50
28484;DHT22;15704;48.834;8.736;2023-06-14T02:47:11;13.50;91.70
28484;DHT22;15704;48.834;8.736;2023-06-14T02:49:38;13.50;91.70
28484;DHT22;15704;48.834;8.736;2023-06-14T02:52:05;13.50;91.70
28484;DHT22;15704;48.834;8.736;2023-06-14T02:54:32;13.50;91.60
28484;DHT22;15704;48.834;8.736;2023-06-14T02:56:59;13.40;91.70
28484;DHT22;15704;48.834;8.736;2023-06-14T02:59:26;13.40;91.80
28484;DHT22;15704;48.834;8.736;2023-06-14T03:01:52;13.30;91.80
28484;DHT22;15704;48.834;8.736;2023-06-14T03:04:19;13.20;91.50
28484;DHT22;15704;48.834;8.736;2023-06-14T03:06:47;13.30;92.00
28484;DHT22;15704;48.834;8.736;2023-06-14T03:09:16;13.30;91.50
28484;DHT22;15704;48.834;8.736;2023-06-14T03:11:43;13.30;91.40
28484;DHT22;15704;48.834;8.736;2023-06-14T03:14:10;13.30;91.50
28484;DHT22;15704;48.834;8.736;2023-06-14T03:16:38;13.30;91.60
28484;DHT22;15704;48.834;8.736;2023-06-14T03:19:05;13.30;91.70
28484;DHT22;15704;48.834;8.736;2023-06-14T03:21:31;13.20;91.60
28484;DHT22;15704;48.834;8.736;2023-06-14T03:23:59;13.30;91.60
28484;DHT22;15704;48.834;8.736;2023-06-14T03:26:26;13.20;91.60
28484;DHT22;15704;48.834;8.736;2023-06-14T03:28:53;13.20;91.70
28484;DHT22;15704;48.834;8.736;2023-06-14T03:31:20;13.20;91.80
28484;DHT22;15704;48.834;8.736;2023-06-14T03:33:47;13.20;91.70
28484;DHT22;15704;48.834;8.736;2023-06-14T03:36:14;13.20;91.50
28484;DHT22;15704;48.834;8.736;2023-06-14T03:38:41;13.20;91.70
28484;DHT22;15704;48.834;8.736;2023-06-14T03:41:08;13.30;91.60
28484;DHT22;15704;48.834;8.736;2023-06-14T03:43:34;13.30;91.40
28484;DHT22;15704;48.834;8.736;2023-06-14T03:46:01;13.30;91.90
28484;DHT22;15704;48.834;8.736;2023-06-14T03:48:28;13.40;91.60
28484;DHT22;15704;48.834;8.736;2023-06-14T03:50:55;13.40;91.60
28484;DHT22;15704;48.834;8.736;2023-06-14T03:53:26;13.50;91.50
28484;DHT22;15704;48.834;8.736;2023-06-14T03:55:55;13.50;91.60
28484;DHT22;15704;48.834;8.736;2023-06-14T03:58:23;13.50;91.70
28484;DHT22;15704;48.834;8.736;2023-06-14T04:00:50;13.60;91.80
28484;DHT22;15704;48.834;8.736;2023-06-14T04:03:17;13.70;92.10
28484;DHT22;15704;48.834;8.736;2023-06-14T04:05:44;13.70;91.80
28484;DHT22;15704;48.834;8.736;2023-06-14T04:08:11;13.70;91.90
28484;DHT22;15704;48.834;8.736;2023-06-14T04:10:41;13.70;91.40
28484;DHT22;15704;48.834;8.736;2023-06-14T04:13:07;13.80;91.70
28484;DHT22;15704;48.834;8.736;2023-06-14T04:15:34;13.90;91.80
28484;DHT22;15704;48.834;8.736;2023-06-14T04:18:02;14.20;91.40
28484;DHT22;15704;48.834;8.736;2023-06-14T04:20:29;14.40;91.00
28484;DHT22;15704;48.834;8.736;2023-06-14T04:22:56;14.50;91.00
28484;DHT22;15704;48.834;8.736;2023-06-14T04:25:24;14.50;91.30
28484;DHT22;15704;48.834;8.736;2023-06-14T04:27:53;14.50;91.00
28484;DHT22;15704;48.834;8.736;2023-06-14T04:30:20;14.60;91.00
28484;DHT22;15704;48.834;8.736;2023-06-14T04:32:48;14.70;90.60
28484;DHT22;15704;48.834;8.736;2023-06-14T04:35:16;14.70;90.30
28484;DHT22;15704;48.834;8.736;2023-06-14T04:37:44;15.00;90.60
28484;DHT22;15704;48.834;8.736;2023-06-14T04:40:11;16.40;87.90
28484;DHT22;15704;48.834;8.736;2023-06-14T04:42:38;16.80;86.80
28484;DHT22;15704;48.834;8.736;2023-06-14T04:45:07;17.30;85.20
28484;DHT22;15704;48.834;8.736;2023-06-14T04:47:35;17.50;83.80
28484;DHT22;15704;48.834;8.736;2023-06-14T04:50:04;17.30;83.90
28484;DHT22;15704;48.834;8.736;2023-06-14T04:52:31;17.20;83.80
28484;DHT22;15704;48.834;8.736;2023-06-14T04:54:58;17.10;83.90
28484;DHT22;15704;48.834;8.736;2023-06-14T04:57:25;17.20;84.70
28484;DHT22;15704;48.834;8.736;2023-06-14T04:59:52;17.20;85.10
28484;DHT22;15704;48.834;8.736;2023-06-14T05:02:23;17.20;84.70
28484;DHT22;15704;48.834;8.736;2023-06-14T05:04:50;17.30;83.50
28484;DHT22;15704;48.834;8.736;2023-06-14T05:07:17;17.10;83.80
28484;DHT22;15704;48.834;8.736;2023-06-14T05:09:44;17.20;83.40
28484;DHT22;15704;48.834;8.736;2023-06-14T05:12:11;17.40;83.80
28484;DHT22;15704;48.834;8.736;2023-06-14T05:14:38;17.40;82.60
28484;DHT22;15704;48.834;8.736;2023-06-14T05:17:06;17.20;82.70
28484;DHT22;15704;48.834;8.736;2023-06-14T05:19:33;17.20;83.70
28484;DHT22;15704;48.834;8.736;2023-06-14T05:21:59;17.40;83.80
28484;DHT22;15704;48.834;8.736;2023-06-14T05:24:26;17.50;83.60
28484;DHT22;15704;48.834;8.736;2023-06-14T05:26:53;17.60;83.50
28484;DHT22;15704;48.834;8.736;2023-06-14T05:29:20;17.60;83.60
28484;DHT22;15704;48.834;8.736;2023-06-14T05:31:46;17.80;83.40
28484;DHT22;15704;48.834;8.736;2023-06-14T05:34:13;17.40;83.30
28484;DHT22;15704;48.834;8.736;2023-06-14T05:36:40;17.40;84.70
28484;DHT22;15704;48.834;8.736;2023-06-14T05:39:07;17.20;85.40
28484;DHT22;15704;48.834;8.736;2023-06-14T05:41:35;17.10;84.20
28484;DHT22;15704;48.834;8.736;2023-06-14T05:44:01;16.60;84.90
28484;DHT22;15704;48.834;8.736;2023-06-14T05:46:28;16.60;86.20
28484;DHT22;15704;48.834;8.736;2023-06-14T05:48:55;16.80;86.80
28484;DHT22;15704;48.834;8.736;2023-06-14T05:51:23;16.40;87.80
28484;DHT22;15704;48.834;8.736;2023-06-14T05:53:52;16.60;88.50
28484;DHT22;15704;48.834;8.736;2023-06-14T05:56:19;16.40;88.50
28484;DHT22;15704;48.834;8.736;2023-06-14T05:58:46;16.60;89.00
28484;DHT22;15704;48.834;8.736;2023-06-14T06:01:14;16.80;89.00
28484;DHT22;15704;48.834;8.736;2023-06-14T06:03:41;16.70;88.40
28484;DHT22;15704;48.834;8.736;2023-06-14T06:06:08;16.50;89.10
28484;DHT22;15704;48.834;8.736;2023-06-14T06:08:35;16.60;89.60
28484;DHT22;15704;48.834;8.736;2023-06-14T06:11:01;16.90;90.00
28484;DHT22;15704;48.834;8.736;2023-06-14T06:13:28;16.90;90.70
28484;DHT22;15704;48.834;8.736;2023-06-14T06:15:55;16.70;89.90
28484;DHT22;15704;48.834;8.736;2023-06-14T06:18:23;16.70;99.90
28484;DHT22;15704;48.834;8.736;2023-06-14T06:20:49;15.30;99.90
28484;DHT22;15704;48.834;8.736;2023-06-14T06:23:16;19.40;99.90
28484;DHT22;15704;48.834;8.736;2023-06-14T06:25:43;20.20;99.90
28484;DHT22;15704;48.834;8.736;2023-06-14T06:28:10;20.70;99.90
28484;DHT22;15704;48.834;8.736;2023-06-14T06:30:38;21.40;99.90
28484;DHT22;15704;48.834;8.736;2023-06-14T06:33:04;22.40;99.90
28484;DHT22;15704;48.834;8.736;2023-06-14T06:35:32;22.60;99.90
28484;DHT22;15704;48.834;8.736;2023-06-14T06:38:00;23.00;99.90
28484;DHT22;15704;48.834;8.736;2023-06-14T06:40:27;23.20;99.90
28484;DHT22;15704;48.834;8.736;2023-06-14T06:42:54;23.60;99.90
28484;DHT22;15704;48.834;8.736;2023-06-14T06:45:21;24.10;99.90
28484;DHT22;15704;48.834;8.736;2023-06-14T06:47:51;24.20;99.90
28484;DHT22;15704;48.834;8.736;2023-06-14T06:50:18;24.30;99.90
28484;DHT22;15704;48.834;8.736;2023-06-14T07:00:09;25.80;99.90
28484;DHT22;15704;48.834;8.736;2023-06-14T07:12:26;26.30;99.90
28484;DHT22;15704;48.834;8.736;2023-06-14T07:14:53;27.40;99.90
28484;DHT22;15704;48.834;8.736;2023-06-14T07:22:14;32.90;99.90
28484;DHT22;15704;48.834;8.736;2023-06-14T07:24:41;32.40;99.90
28484;DHT22;15704;48.834;8.736;2023-06-14T07:27:09;32.70;99.90
28484;DHT22;15704;48.834;8.736;2023-06-14T07:29:39;32.90;99.90
28484;DHT22;15704;48.834;8.736;2023-06-14T07:34:33;33.10;99.90
28484;DHT22;15704;48.834;8.736;2023-06-14T07:37:00;33.40;99.90
28484;DHT22;15704;48.834;8.736;2023-06-14T07:39:27;34.20;99.90
28484;DHT22;15704;48.834;8.736;2023-06-14T07:41:54;34.00;99.90
28484;DHT22;15704;48.834;8.736;2023-06-14T07:44:20;34.00;99.90
28484;DHT22;15704;48.834;8.736;2023-06-14T07:46:47;33.90;99.90
28484;DHT22;15704;48.834;8.736;2023-06-14T07:49:15;33.90;99.90
28484;DHT22;15704;48.834;8.736;2023-06-14T07:51:43;34.20;99.90
28484;DHT22;15704;48.834;8.736;2023-06-14T07:54:11;34.10;99.90
28484;DHT22;15704;48.834;8.736;2023-06-14T08:23:41;33.40;99.90
28484;DHT22;15704;48.834;8.736;2023-06-14T08:26:09;33.30;99.90
28484;DHT22;15704;48.834;8.736;2023-06-14T08:28:37;33.10;99.90
28484;DHT22;15704;48.834;8.736;2023-06-14T08:31:04;33.10;99.90
28484;DHT22;15704;48.834;8.736;2023-06-14T08:33:30;32.60;99.90
28484;DHT22;15704;48.834;8.736;2023-06-14T08:35:59;32.20;99.90
28484;DHT22;15704;48.834;8.736;2023-06-14T08:43:24;31.90;99.90
28484;DHT22;15704;48.834;8.736;2023-06-14T08:45:56;32.20;99.90
28484;DHT22;15704;48.834;8.736;2023-06-14T08:48:26;32.20;99.90
28484;DHT22;15704;48.834;8.736;2023-06-14T08:50:55;32.00;99.90
28484;DHT22;15704;48.834;8.736;2023-06-14T08:53:30;31.90;99.90
28484;DHT22;15704;48.834;8.736;2023-06-14T08:56:03;32.20;99.90
28484;DHT22;15704;48.834;8.736;2023-06-14T08:58:31;32.00;99.90
28484;DHT22;15704;48.834;8.736;2023-06-14T09:01:04;31.80;99.90
28484;DHT22;15704;48.834;8.736;2023-06-14T09:03:31;31.40;99.90
28484;DHT22;15704;48.834;8.736;2023-06-14T09:06:00;31.40;99.90
28484;DHT22;15704;48.834;8.736;2023-06-14T09:08:28;30.80;99.90
28484;DHT22;15704;48.834;8.736;2023-06-14T09:10:58;30.90;99.90
28484;DHT22;15704;48.834;8.736;2023-06-14T09:13:26;30.60;99.90
28484;DHT22;15704;48.834;8.736;2023-06-14T09:15:57;29.70;99.90
28484;DHT22;15704;48.834;8.736;2023-06-14T09:18:37;29.30;99.90
28484;DHT22;15704;48.834;8.736;2023-06-14T09:21:08;28.50;99.90
28484;DHT22;15704;48.834;8.736;2023-06-14T09:23:43;29.10;99.90
28484;DHT22;15704;48.834;8.736;2023-06-14T09:31:14;26.00;99.90
28484;DHT22;15704;48.834;8.736;2023-06-14T09:33:45;26.10;99.90
28484;DHT22;15704;48.834;8.736;2023-06-14T09:36:25;25.40;99.90
28484;DHT22;15704;48.834;8.736;2023-06-14T09:38:57;24.90;99.90
28484;DHT22;15704;48.834;8.736;2023-06-14T09:44:01;24.30;99.90
28484;DHT22;15704;48.834;8.736;2023-06-14T09:46:34;24.00;99.90
28484;DHT22;15704;48.834;8.736;2023-06-14T09:49:02;24.00;99.90
28484;DHT22;15704;48.834;8.736;2023-06-14T09:51:30;24.30;99.90
28484;DHT22;15704;48.834;8.736;2023-06-14T10:01:34;19.40;99.90
28484;DHT22;15704;48.834;8.736;2023-06-14T10:09:08;19.60;99.90
28484;DHT22;15704;48.834;8.736;2023-06-14T10:11:36;19.80;99.90
28484;DHT22;15704;48.834;8.736;2023-06-14T10:14:05;20.10;99.90
28484;DHT22;15704;48.834;8.736;2023-06-14T10:17:06;20.70;98.70
28484;DHT22;15704;48.834;8.736;2023-06-14T10:19:40;20.80;96.80
28484;DHT22;15704;48.834;8.736;2023-06-14T10:22:24;20.70;95.60
28484;DHT22;15704;48.834;8.736;2023-06-14T10:24:52;20.80;94.90
28484;DHT22;15704;48.834;8.736;2023-06-14T10:27:19;20.90;94.50
28484;DHT22;15704;48.834;8.736;2023-06-14T10:32:24;21.00;93.40
28484;DHT22;15704;48.834;8.736;2023-06-14T10:35:05;21.00;93.20
28484;DHT22;15704;48.834;8.736;2023-06-14T10:37:33;21.40;93.20
28484;DHT22;15704;48.834;8.736;2023-06-14T10:39:59;21.10;92.60
28484;DHT22;15704;48.834;8.736;2023-06-14T10:42:32;21.20;92.30
28484;DHT22;15704;48.834;8.736;2023-06-14T10:45:00;21.20;91.50
28484;DHT22;15704;48.834;8.736;2023-06-14T10:47:36;21.60;91.70
28484;DHT22;15704;48.834;8.736;2023-06-14T10:50:07;21.50;90.80
28484;DHT22;15704;48.834;8.736;2023-06-14T10:52:39;21.20;91.20
28484;DHT22;15704;48.834;8.736;2023-06-14T10:55:16;21.30;90.40
28484;DHT22;15704;48.834;8.736;2023-06-14T10:57:53;21.20;90.90
28484;DHT22;15704;48.834;8.736;2023-06-14T11:00:24;21.30;90.70
28484;DHT22;15704;48.834;8.736;2023-06-14T11:05:52;21.10;89.60
28484;DHT22;15704;48.834;8.736;2023-06-14T11:11:05;21.10;90.40
28484;DHT22;15704;48.834;8.736;2023-06-14T11:13:32;21.50;88.50
28484;DHT22;15704;48.834;8.736;2023-06-14T11:15:59;21.80;90.00
28484;DHT22;15704;48.834;8.736;2023-06-14T11:18:28;21.70;88.40
28484;DHT22;15704;48.834;8.736;2023-06-14T11:20:55;21.50;88.00
28484;DHT22;15704;48.834;8.736;2023-06-14T11:23:22;21.20;87.40
28484;DHT22;15704;48.834;8.736;2023-06-14T11:25:53;21.00;88.30
28484;DHT22;15704;48.834;8.736;2023-06-14T11:28:19;21.10;86.50
28484;DHT22;15704;48.834;8.736;2023-06-14T11:30:49;21.30;86.70
28484;DHT22;15704;48.834;8.736;2023-06-14T11:33:19;21.40;85.70
28484;DHT22;15704;48.834;8.736;2023-06-14T11:35:45;21.90;87.60
28484;DHT22;15704;48.834;8.736;2023-06-14T11:38:12;21.70;86.70
28484;DHT22;15704;48.834;8.736;2023-06-14T11:40:39;21.80;87.00
28484;DHT22;15704;48.834;8.736;2023-06-14T11:43:06;21.50;86.90
28484;DHT22;15704;48.834;8.736;2023-06-14T11:45:33;21.60;85.80
28484;DHT22;15704;48.834;8.736;2023-06-14T11:47:59;21.60;86.20
28484;DHT22;15704;48.834;8.736;2023-06-14T11:50:28;21.30;85.60
28484;DHT22;15704;48.834;8.736;2023-06-14T11:52:55;21.40;84.80
28484;DHT22;15704;48.834;8.736;2023-06-14T11:55:23;21.70;86.60
28484;DHT22;15704;48.834;8.736;2023-06-14T11:57:50;21.80;84.30
28484;DHT22;15704;48.834;8.736;2023-06-14T12:00:17;21.50;84.60
28484;DHT22;15704;48.834;8.736;2023-06-14T12:02:53;21.60;81.90
28484;DHT22;15704;48.834;8.736;2023-06-14T12:05:23;22.00;84.80
28484;DHT22;15704;48.834;8.736;2023-06-14T12:07:50;22.20;86.30
28484;DHT22;15704;48.834;8.736;2023-06-14T12:10:26;21.90;86.10
28484;DHT22;15704;48.834;8.736;2023-06-14T12:12:57;21.70;84.50
28484;DHT22;15704;48.834;8.736;2023-06-14T12:15:28;22.00;83.70
28484;DHT22;15704;48.834;8.736;2023-06-14T12:17:56;21.90;83.50
28484;DHT22;15704;48.834;8.736;2023-06-14T12:20:29;21.60;81.00
28484;DHT22;15704;48.834;8.736;2023-06-14T12:23:03;21.70;83.50
28484;DHT22;15704;48.834;8.736;2023-06-14T12:25:31;21.80;82.80
28484;DHT22;15704;48.834;8.736;2023-06-14T12:28:06;21.80;80.50
28484;DHT22;15704;48.834;8.736;2023-06-14T12:30:36;22.10;78.90
28484;DHT22;15704;48.834;8.736;2023-06-14T12:33:04;21.90;82.40
28484;DHT22;15704;48.834;8.736;2023-06-14T12:35:31;21.90;82.40
28484;DHT22;15704;48.834;8.736;2023-06-14T12:37:58;21.70;81.60
28484;DHT22;15704;48.834;8.736;2023-06-14T12:40:25;21.70;82.20
28484;DHT22;15704;48.834;8.736;2023-06-14T12:42:53;21.70;82.00
28484;DHT22;15704;48.834;8.736;2023-06-14T12:45:19;21.60;81.10
28484;DHT22;15704;48.834;8.736;2023-06-14T12:47:46;21.70;84.20
28484;DHT22;15704;48.834;8.736;2023-06-14T12:50:13;21.90;78.30
28484;DHT22;15704;48.834;8.736;2023-06-14T12:52:41;22.00;79.80
28484;DHT22;15704;48.834;8.736;2023-06-14T12:55:07;22.20;80.80
28484;DHT22;15704;48.834;8.736;2023-06-14T12:57:34;22.00;81.30
28484;DHT22;15704;48.834;8.736;2023-06-14T13:00:05;22.00;80.60
28484;DHT22;15704;48.834;8.736;2023-06-14T13:02:34;21.70;81.60
28484;DHT22;15704;48.834;8.736;2023-06-14T13:05:01;21.70;81.20
28484;DHT22;15704;48.834;8.736;2023-06-14T13:07:30;21.80;83.60
28484;DHT22;15704;48.834;8.736;2023-06-14T13:09:56;21.50;81.20
28484;DHT22;15704;48.834;8.736;2023-06-14T13:12:24;21.70;82.60
28484;DHT22;15704;48.834;8.736;2023-06-14T13:14:50;21.90;82.40
28484;DHT22;15704;48.834;8.736;2023-06-14T13:17:17;21.90;81.50
28484;DHT22;15704;48.834;8.736;2023-06-14T13:19:44;21.90;82.70
28484;DHT22;15704;48.834;8.736;2023-06-14T13:22:11;21.80;80.30
28484;DHT22;15704;48.834;8.736;2023-06-14T13:24:38;21.90;78.70
28484;DHT22;15704;48.834;8.736;2023-06-14T13:27:05;21.90;79.90
28484;DHT22;15704;48.834;8.736;2023-06-14T13:29:32;22.30;80.90
28484;DHT22;15704;48.834;8.736;2023-06-14T13:32:03;22.40;80.60
28484;DHT22;15704;48.834;8.736;2023-06-14T13:34:30;22.40;80.80
28484;DHT22;15704;48.834;8.736;2023-06-14T13:36:57;22.00;80.90
28484;DHT22;15704;48.834;8.736;2023-06-14T13:39:26;21.70;81.70
28484;DHT22;15704;48.834;8.736;2023-06-14T13:41:52;21.30;81.60
28484;DHT22;15704;48.834;8.736;2023-06-14T13:44:19;21.10;82.20
28484;DHT22;15704;48.834;8.736;2023-06-14T13:46:47;21.30;83.60
28484;DHT22;15704;48.834;8.736;2023-06-14T13:49:14;21.40;81.00
28484;DHT22;15704;48.834;8.736;2023-06-14T13:51:41;21.60;80.80
28484;DHT22;15704;48.834;8.736;2023-06-14T13:54:08;21.90;82.70
28484;DHT22;15704;48.834;8.736;2023-06-14T13:56:35;21.90;80.20
28484;DHT22;15704;48.834;8.736;2023-06-14T13:59:01;21.90;80.00
28484;DHT22;15704;48.834;8.736;2023-06-14T14:01:28;22.00;78.40
28484;DHT22;15704;48.834;8.736;2023-06-14T14:03:55;22.00;78.90
28484;DHT22;15704;48.834;8.736;2023-06-14T14:06:22;22.30;82.10
28484;DHT22;15704;48.834;8.736;2023-06-14T14:08:49;22.20;79.20
28484;DHT22;15704;48.834;8.736;2023-06-14T14:11:16;22.20;78.90
28484;DHT22;15704;48.834;8.736;2023-06-14T14:13:43;22.20;80.30
28484;DHT22;15704;48.834;8.736;2023-06-14T14:16:10;22.20;80.00
28484;DHT22;15704;48.834;8.736;2023-06-14T14:18:38;22.20;79.90
28484;DHT22;15704;48.834;8.736;2023-06-14T14:21:05;22.10;78.60
28484;DHT22;15704;48.834;8.736;2023-06-14T14:23:32;22.20;78.80
28484;DHT22;15704;48.834;8.736;2023-06-14T14:25:58;21.80;79.40
28484;DHT22;15704;48.834;8.736;2023-06-14T14:28:30;22.00;80.30
28484;DHT22;15704;48.834;8.736;2023-06-14T14:30:57;22.30;79.50
28484;DHT22;15704;48.834;8.736;2023-06-14T14:33:24;22.40;79.20
28484;DHT22;15704;48.834;8.736;2023-06-14T14:35:51;22.40;80.20
28484;DHT22;15704;48.834;8.736;2023-06-14T14:38:18;22.20;79.20
28484;DHT22;15704;48.834;8.736;2023-06-14T14:40:45;22.30;78.60
28484;DHT22;15704;48.834;8.736;2023-06-14T14:43:11;22.40;78.80
28484;DHT22;15704;48.834;8.736;2023-06-14T14:45:38;22.70;78.60
28484;DHT22;15704;48.834;8.736;2023-06-14T14:48:05;22.30;76.30
28484;DHT22;15704;48.834;8.736;2023-06-14T14:50:33;22.30;78.00
28484;DHT22;15704;48.834;8.736;2023-06-14T14:52:59;22.60;77.90
28484;DHT22;15704;48.834;8.736;2023-06-14T14:55:26;22.50;76.30
28484;DHT22;15704;48.834;8.736;2023-06-14T14:57:53;22.30;76.50
28484;DHT22;15704;48.834;8.736;2023-06-14T15:00:20;22.30;76.70
28484;DHT22;15704;48.834;8.736;2023-06-14T15:02:47;22.50;77.10
28484;DHT22;15704;48.834;8.736;2023-06-14T15:05:14;22.50;76.20
28484;DHT22;15704;48.834;8.736;2023-06-14T15:07:41;22.70;76.90
28484;DHT22;15704;48.834;8.736;2023-06-14T15:10:08;22.80;76.40
28484;DHT22;15704;48.834;8.736;2023-06-14T15:12:35;23.20;76.80
28484;DHT22;15704;48.834;8.736;2023-06-14T15:15:03;23.10;75.80
28484;DHT22;15704;48.834;8.736;2023-06-14T15:17:30;22.70;75.00
28484;DHT22;15704;48.834;8.736;2023-06-14T15:19:57;22.90;75.70
28484;DHT22;15704;48.834;8.736;2023-06-14T15:22:24;22.60;76.50
28484;DHT22;15704;48.834;8.736;2023-06-14T15:24:51;22.90;75.70
28484;DHT22;15704;48.834;8.736;2023-06-14T15:27:18;23.00;75.30
28484;DHT22;15704;48.834;8.736;2023-06-14T15:29:45;23.00;75.60
28484;DHT22;15704;48.834;8.736;2023-06-14T15:32:15;23.10;77.10
28484;DHT22;15704;48.834;8.736;2023-06-14T15:34:42;22.70;76.40
28484;DHT22;15704;48.834;8.736;2023-06-14T15:37:08;23.00;74.90
28484;DHT22;15704;48.834;8.736;2023-06-14T15:39:35;22.90;75.30
28484;DHT22;15704;48.834;8.736;2023-06-14T15:42:03;22.90;76.50
28484;DHT22;15704;48.834;8.736;2023-06-14T15:44:30;22.90;76.20
28484;DHT22;15704;48.834;8.736;2023-06-14T15:46:57;22.60;77.00
28484;DHT22;15704;48.834;8.736;2023-06-14T15:49:23;23.00;77.80
28484;DHT22;15704;48.834;8.736;2023-06-14T15:51:50;23.40;74.10
28484;DHT22;15704;48.834;8.736;2023-06-14T15:54:17;23.20;75.00
28484;DHT22;15704;48.834;8.736;2023-06-14T15:56:44;23.30;74.70
28484;DHT22;15704;48.834;8.736;2023-06-14T15:59:12;23.30;75.40
28484;DHT22;15704;48.834;8.736;2023-06-14T16:01:38;23.40;76.00
28484;DHT22;15704;48.834;8.736;2023-06-14T16:04:06;23.40;76.10
28484;DHT22;15704;48.834;8.736;2023-06-14T16:06:32;23.40;75.60
28484;DHT22;15704;48.834;8.736;2023-06-14T16:08:59;23.00;75.30
28484;DHT22;15704;48.834;8.736;2023-06-14T16:11:26;23.20;74.50
28484;DHT22;15704;48.834;8.736;2023-06-14T16:13:53;23.40;75.20
28484;DHT22;15704;48.834;8.736;2023-06-14T16:16:22;23.60;76.30
28484;DHT22;15704;48.834;8.736;2023-06-14T16:18:49;23.20;74.60
28484;DHT22;15704;48.834;8.736;2023-06-14T16:21:16;23.40;75.10
28484;DHT22;15704;48.834;8.736;2023-06-14T16:23:43;23.40;74.30
28484;DHT22;15704;48.834;8.736;2023-06-14T16:26:11;23.50;76.70
28484;DHT22;15704;48.834;8.736;2023-06-14T16:28:39;23.50;74.30
28484;DHT22;15704;48.834;8.736;2023-06-14T16:31:12;23.70;75.00
28484;DHT22;15704;48.834;8.736;2023-06-14T16:33:43;23.70;74.60
28484;DHT22;15704;48.834;8.736;2023-06-14T16:36:10;24.10;74.10
28484;DHT22;15704;48.834;8.736;2023-06-14T16:38:37;23.90;73.30
28484;DHT22;15704;48.834;8.736;2023-06-14T16:41:04;23.90;73.60
28484;DHT22;15704;48.834;8.736;2023-06-14T16:43:31;23.90;74.30
28484;DHT22;15704;48.834;8.736;2023-06-14T16:45:57;23.70;74.00
28484;DHT22;15704;48.834;8.736;2023-06-14T16:48:24;23.70;75.00
28484;DHT22;15704;48.834;8.736;2023-06-14T16:50:51;23.80;74.40
28484;DHT22;15704;48.834;8.736;2023-06-14T16:53:17;23.80;75.20
28484;DHT22;15704;48.834;8.736;2023-06-14T16:55:44;23.80;75.60
28484;DHT22;15704;48.834;8.736;2023-06-14T16:58:11;23.30;75.10
28484;DHT22;15704;48.834;8.736;2023-06-14T17:00:38;23.30;75.80
28484;DHT22;15704;48.834;8.736;2023-06-14T17:03:04;23.30;76.10